sensor_id;sensor_type;location;lat;lon;timestamp;P1;durP1;ratioP1;P2;durP2;ratioP2
20375;SDS011;10347;51.828;6.466;2022-08-05T00:01:39;5.45;;;2.28;;
20375;SDS011;10347;51.828;6.466;2022-08-05T00:04:04;4.43;;;2.60;;
20375;SDS011;10347;51.828;6.466;2022-08-05T00:06:30;4.88;;;2.50;;
20375;SDS011;10347;51.828;6.466;2022-08-05T00:08:56;2.85;;;2.40;;
20375;SDS011;10347;51.828;6.466;2022-08-05T00:11:21;4.00;;;2.58;;
20375;SDS011;10347;51.828;6.466;2022-08-05T00:13:47;2.40;;;2.20;;
20375;SDS011;10347;51.828;6.466;2022-08-05T00:16:13;3.35;;;2.75;;
20375;SDS011;10347;51.828;6.466;2022-08-05T00:18:41;5.72;;;3.15;;
20375;SDS011;10347;51.828;6.466;2022-08-05T00:21:12;2.72;;;2.53;;
20375;SDS011;10347;51.828;6.466;2022-08-05T00:23:38;4.30;;;3.08;;
20375;SDS011;10347;51.828;6.466;2022-08-05T00:26:05;3.55;;;2.80;;
20375;SDS011;10347;51.828;6.466;2022-08-05T00:28:31;3.75;;;3.45;;
20375;SDS011;10347;51.828;6.466;2022-08-05T00:30:57;5.18;;;3.20;;
20375;SDS011;10347;51.828;6.466;2022-08-05T00:33:23;3.60;;;2.97;;
20375;SDS011;10347;51.828;6.466;2022-08-05T00:35:48;3.28;;;2.97;;
20375;SDS011;10347;51.828;6.466;2022-08-05T00:38:14;3.40;;;3.10;;
20375;SDS011;10347;51.828;6.466;2022-08-05T00:40:47;5.13;;;3.58;;
20375;SDS011;10347;51.828;6.466;2022-08-05T00:43:14;5.38;;;3.60;;
20375;SDS011;10347;51.828;6.466;2022-08-05T00:45:40;3.30;;;3.00;;
20375;SDS011;10347;51.828;6.466;2022-08-05T00:48:08;8.23;;;3.90;;
20375;SDS011;10347;51.828;6.466;2022-08-05T00:50:39;7.55;;;3.67;;
20375;SDS011;10347;51.828;6.466;2022-08-05T00:53:06;3.78;;;3.47;;
20375;SDS011;10347;51.828;6.466;2022-08-05T00:55:31;4.32;;;3.20;;
20375;SDS011;10347;51.828;6.466;2022-08-05T00:57:57;5.93;;;3.53;;
20375;SDS011;10347;51.828;6.466;2022-08-05T01:00:23;7.65;;;4.18;;
20375;SDS011;10347;51.828;6.466;2022-08-05T01:02:49;3.45;;;3.10;;
20375;SDS011;10347;51.828;6.466;2022-08-05T01:05:14;5.28;;;3.10;;
20375;SDS011;10347;51.828;6.466;2022-08-05T01:07:40;3.67;;;2.90;;
20375;SDS011;10347;51.828;6.466;2022-08-05T01:10:06;2.67;;;2.47;;
20375;SDS011;10347;51.828;6.466;2022-08-05T01:12:37;5.82;;;3.35;;
20375;SDS011;10347;51.828;6.466;2022-08-05T01:15:08;5.68;;;3.67;;
20375;SDS011;10347;51.828;6.466;2022-08-05T01:17:37;4.07;;;3.22;;
20375;SDS011;10347;51.828;6.466;2022-08-05T01:23:00;4.30;;;3.42;;
20375;SDS011;10347;51.828;6.466;2022-08-05T01:28:52;7.85;;;4.47;;
20375;SDS011;10347;51.828;6.466;2022-08-05T01:31:43;4.45;;;3.40;;
20375;SDS011;10347;51.828;6.466;2022-08-05T01:36:46;5.30;;;3.80;;
20375;SDS011;10347;51.828;6.466;2022-08-05T01:39:15;6.75;;;5.10;;
20375;SDS011;10347;51.828;6.466;2022-08-05T01:41:43;4.15;;;3.75;;
20375;SDS011;10347;51.828;6.466;2022-08-05T01:44:11;3.70;;;3.40;;
20375;SDS011;10347;51.828;6.466;2022-08-05T01:46:38;5.50;;;3.85;;
20375;SDS011;10347;51.828;6.466;2022-08-05T01:49:05;6.95;;;4.20;;
20375;SDS011;10347;51.828;6.466;2022-08-05T01:51:33;5.93;;;4.18;;
20375;SDS011;10347;51.828;6.466;2022-08-05T01:54:00;4.18;;;3.72;;
20375;SDS011;10347;51.828;6.466;2022-08-05T01:56:29;5.10;;;3.50;;
20375;SDS011;10347;51.828;6.466;2022-08-05T01:58:56;8.25;;;4.35;;
20375;SDS011;10347;51.828;6.466;2022-08-05T02:01:24;4.43;;;3.90;;
20375;SDS011;10347;51.828;6.466;2022-08-05T02:03:51;3.33;;;3.03;;
20375;SDS011;10347;51.828;6.466;2022-08-05T02:06:19;7.18;;;3.60;;
20375;SDS011;10347;51.828;6.466;2022-08-05T02:08:45;3.72;;;3.08;;
20375;SDS011;10347;51.828;6.466;2022-08-05T02:11:11;6.38;;;3.63;;
20375;SDS011;10347;51.828;6.466;2022-08-05T02:13:41;6.85;;;3.42;;
20375;SDS011;10347;51.828;6.466;2022-08-05T02:18:41;6.60;;;4.05;;
20375;SDS011;10347;51.828;6.466;2022-08-05T02:21:17;3.85;;;3.50;;
20375;SDS011;10347;51.828;6.466;2022-08-05T02:23:47;5.47;;;3.42;;
20375;SDS011;10347;51.828;6.466;2022-08-05T02:26:18;4.15;;;3.40;;
20375;SDS011;10347;51.828;6.466;2022-08-05T02:28:54;4.70;;;3.30;;
20375;SDS011;10347;51.828;6.466;2022-08-05T02:31:25;4.38;;;3.40;;
20375;SDS011;10347;51.828;6.466;2022-08-05T02:34:05;6.10;;;3.75;;
20375;SDS011;10347;51.828;6.466;2022-08-05T02:36:34;3.38;;;3.05;;
20375;SDS011;10347;51.828;6.466;2022-08-05T02:39:03;6.07;;;2.83;;
20375;SDS011;10347;51.828;6.466;2022-08-05T02:41:31;5.47;;;3.05;;
20375;SDS011;10347;51.828;6.466;2022-08-05T02:43:58;6.18;;;3.42;;
20375;SDS011;10347;51.828;6.466;2022-08-05T02:46:25;4.35;;;3.00;;
20375;SDS011;10347;51.828;6.466;2022-08-05T02:48:52;5.47;;;3.25;;
20375;SDS011;10347;51.828;6.466;2022-08-05T02:51:19;5.13;;;2.90;;
20375;SDS011;10347;51.828;6.466;2022-08-05T02:53:45;7.53;;;3.28;;
20375;SDS011;10347;51.828;6.466;2022-08-05T02:56:12;5.75;;;3.95;;
20375;SDS011;10347;51.828;6.466;2022-08-05T02:58:38;6.85;;;3.53;;
20375;SDS011;10347;51.828;6.466;2022-08-05T03:01:05;7.43;;;4.10;;
20375;SDS011;10347;51.828;6.466;2022-08-05T03:03:36;6.53;;;3.60;;
20375;SDS011;10347;51.828;6.466;2022-08-05T03:06:04;5.57;;;3.25;;
20375;SDS011;10347;51.828;6.466;2022-08-05T03:08:31;6.28;;;3.20;;
20375;SDS011;10347;51.828;6.466;2022-08-05T03:10:58;4.68;;;3.15;;
20375;SDS011;10347;51.828;6.466;2022-08-05T03:13:24;6.90;;;3.38;;
20375;SDS011;10347;51.828;6.466;2022-08-05T03:15:49;4.45;;;3.50;;
20375;SDS011;10347;51.828;6.466;2022-08-05T03:18:15;4.85;;;3.40;;
20375;SDS011;10347;51.828;6.466;2022-08-05T03:20:41;3.45;;;3.15;;
20375;SDS011;10347;51.828;6.466;2022-08-05T03:23:07;5.03;;;3.50;;
20375;SDS011;10347;51.828;6.466;2022-08-05T03:25:34;4.60;;;3.33;;
20375;SDS011;10347;51.828;6.466;2022-08-05T03:28:01;3.83;;;3.17;;
20375;SDS011;10347;51.828;6.466;2022-08-05T03:30:29;8.98;;;3.40;;
20375;SDS011;10347;51.828;6.466;2022-08-05T03:32:57;6.20;;;3.53;;
20375;SDS011;10347;51.828;6.466;2022-08-05T03:35:24;8.32;;;3.80;;
20375;SDS011;10347;51.828;6.466;2022-08-05T03:37:52;5.28;;;3.72;;
20375;SDS011;10347;51.828;6.466;2022-08-05T03:40:20;3.38;;;2.60;;
20375;SDS011;10347;51.828;6.466;2022-08-05T03:42:45;4.82;;;3.10;;
20375;SDS011;10347;51.828;6.466;2022-08-05T03:45:11;2.90;;;2.63;;
20375;SDS011;10347;51.828;6.466;2022-08-05T03:47:37;4.22;;;2.95;;
20375;SDS011;10347;51.828;6.466;2022-08-05T03:50:02;8.82;;;2.97;;
20375;SDS011;10347;51.828;6.466;2022-08-05T03:52:30;4.32;;;2.13;;
20375;SDS011;10347;51.828;6.466;2022-08-05T03:55:00;2.58;;;2.30;;
20375;SDS011;10347;51.828;6.466;2022-08-05T03:57:31;9.30;;;3.40;;
20375;SDS011;10347;51.828;6.466;2022-08-05T04:02:55;2.53;;;2.33;;
20375;SDS011;10347;51.828;6.466;2022-08-05T04:05:24;4.13;;;2.72;;
20375;SDS011;10347;51.828;6.466;2022-08-05T04:07:53;3.58;;;2.38;;
20375;SDS011;10347;51.828;6.466;2022-08-05T04:10:18;5.80;;;3.38;;
20375;SDS011;10347;51.828;6.466;2022-08-05T04:12:44;6.43;;;3.10;;
20375;SDS011;10347;51.828;6.466;2022-08-05T04:15:10;4.82;;;3.10;;
20375;SDS011;10347;51.828;6.466;2022-08-05T04:17:36;4.78;;;2.50;;
20375;SDS011;10347;51.828;6.466;2022-08-05T04:20:02;4.32;;;2.70;;
20375;SDS011;10347;51.828;6.466;2022-08-05T04:22:28;6.15;;;2.97;;
20375;SDS011;10347;51.828;6.466;2022-08-05T04:24:54;4.68;;;2.40;;
20375;SDS011;10347;51.828;6.466;2022-08-05T04:27:19;3.08;;;2.30;;
20375;SDS011;10347;51.828;6.466;2022-08-05T04:29:45;5.10;;;3.15;;
20375;SDS011;10347;51.828;6.466;2022-08-05T04:32:10;4.82;;;2.70;;
20375;SDS011;10347;51.828;6.466;2022-08-05T04:34:36;4.55;;;2.63;;
20375;SDS011;10347;51.828;6.466;2022-08-05T04:37:02;5.45;;;3.17;;
20375;SDS011;10347;51.828;6.466;2022-08-05T04:39:28;6.18;;;3.15;;
20375;SDS011;10347;51.828;6.466;2022-08-05T04:41:55;7.38;;;3.58;;
20375;SDS011;10347;51.828;6.466;2022-08-05T04:44:20;7.00;;;3.47;;
20375;SDS011;10347;51.828;6.466;2022-08-05T04:46:46;7.95;;;3.83;;
20375;SDS011;10347;51.828;6.466;2022-08-05T04:49:12;6.65;;;3.05;;
20375;SDS011;10347;51.828;6.466;2022-08-05T04:51:37;7.88;;;3.33;;
20375;SDS011;10347;51.828;6.466;2022-08-05T04:54:03;9.85;;;3.95;;
20375;SDS011;10347;51.828;6.466;2022-08-05T04:56:28;4.50;;;2.92;;
20375;SDS011;10347;51.828;6.466;2022-08-05T04:58:54;4.28;;;2.60;;
20375;SDS011;10347;51.828;6.466;2022-08-05T05:01:20;3.97;;;2.45;;
20375;SDS011;10347;51.828;6.466;2022-08-05T05:03:45;2.58;;;2.38;;
20375;SDS011;10347;51.828;6.466;2022-08-05T05:06:11;3.63;;;2.60;;
20375;SDS011;10347;51.828;6.466;2022-08-05T05:08:37;4.78;;;2.58;;
20375;SDS011;10347;51.828;6.466;2022-08-05T05:11:03;7.95;;;3.22;;
20375;SDS011;10347;51.828;6.466;2022-08-05T05:13:29;4.57;;;2.50;;
20375;SDS011;10347;51.828;6.466;2022-08-05T05:15:55;5.47;;;3.28;;
20375;SDS011;10347;51.828;6.466;2022-08-05T05:18:21;5.32;;;3.33;;
20375;SDS011;10347;51.828;6.466;2022-08-05T05:20:47;6.00;;;4.32;;
20375;SDS011;10347;51.828;6.466;2022-08-05T05:23:12;7.65;;;4.30;;
20375;SDS011;10347;51.828;6.466;2022-08-05T05:25:42;5.50;;;3.58;;
20375;SDS011;10347;51.828;6.466;2022-08-05T05:28:08;6.20;;;3.75;;
20375;SDS011;10347;51.828;6.466;2022-08-05T05:30:35;9.63;;;5.53;;
20375;SDS011;10347;51.828;6.466;2022-08-05T05:33:02;5.40;;;3.90;;
20375;SDS011;10347;51.828;6.466;2022-08-05T05:35:29;8.13;;;3.70;;
20375;SDS011;10347;51.828;6.466;2022-08-05T05:37:56;6.72;;;4.03;;
20375;SDS011;10347;51.828;6.466;2022-08-05T05:40:24;8.30;;;3.60;;
20375;SDS011;10347;51.828;6.466;2022-08-05T05:42:51;3.35;;;2.95;;
20375;SDS011;10347;51.828;6.466;2022-08-05T05:45:17;6.00;;;3.60;;
20375;SDS011;10347;51.828;6.466;2022-08-05T05:47:44;8.13;;;4.75;;
20375;SDS011;10347;51.828;6.466;2022-08-05T05:50:11;7.35;;;4.10;;
20375;SDS011;10347;51.828;6.466;2022-08-05T05:52:39;5.53;;;3.67;;
20375;SDS011;10347;51.828;6.466;2022-08-05T05:55:06;5.97;;;3.35;;
20375;SDS011;10347;51.828;6.466;2022-08-05T05:57:34;4.60;;;2.83;;
20375;SDS011;10347;51.828;6.466;2022-08-05T06:00:00;3.38;;;2.42;;
20375;SDS011;10347;51.828;6.466;2022-08-05T06:02:26;6.72;;;2.80;;
20375;SDS011;10347;51.828;6.466;2022-08-05T06:04:51;4.18;;;2.53;;
20375;SDS011;10347;51.828;6.466;2022-08-05T06:07:17;4.22;;;2.35;;
20375;SDS011;10347;51.828;6.466;2022-08-05T06:09:43;5.88;;;2.78;;
20375;SDS011;10347;51.828;6.466;2022-08-05T06:12:08;2.75;;;2.45;;
20375;SDS011;10347;51.828;6.466;2022-08-05T06:14:34;5.60;;;2.33;;
20375;SDS011;10347;51.828;6.466;2022-08-05T06:16:59;3.88;;;2.00;;
20375;SDS011;10347;51.828;6.466;2022-08-05T06:19:26;3.45;;;2.10;;
20375;SDS011;10347;51.828;6.466;2022-08-05T06:21:52;4.50;;;2.30;;
20375;SDS011;10347;51.828;6.466;2022-08-05T06:24:17;3.92;;;2.80;;
20375;SDS011;10347;51.828;6.466;2022-08-05T06:26:43;5.00;;;2.13;;
20375;SDS011;10347;51.828;6.466;2022-08-05T06:29:10;3.97;;;2.28;;
20375;SDS011;10347;51.828;6.466;2022-08-05T06:31:35;2.80;;;2.20;;
20375;SDS011;10347;51.828;6.466;2022-08-05T06:34:02;5.35;;;2.42;;
20375;SDS011;10347;51.828;6.466;2022-08-05T06:36:28;5.10;;;2.20;;
20375;SDS011;10347;51.828;6.466;2022-08-05T06:38:54;4.50;;;3.25;;
20375;SDS011;10347;51.828;6.466;2022-08-05T06:41:20;6.55;;;3.13;;
20375;SDS011;10347;51.828;6.466;2022-08-05T06:43:46;5.50;;;3.67;;
20375;SDS011;10347;51.828;6.466;2022-08-05T06:46:12;6.95;;;3.08;;
20375;SDS011;10347;51.828;6.466;2022-08-05T06:48:37;3.83;;;2.60;;
20375;SDS011;10347;51.828;6.466;2022-08-05T06:51:03;3.90;;;2.33;;
20375;SDS011;10347;51.828;6.466;2022-08-05T06:53:29;3.65;;;3.33;;
20375;SDS011;10347;51.828;6.466;2022-08-05T06:55:58;4.53;;;2.90;;
20375;SDS011;10347;51.828;6.466;2022-08-05T06:58:25;5.85;;;2.92;;
20375;SDS011;10347;51.828;6.466;2022-08-05T07:00:51;5.25;;;3.83;;
20375;SDS011;10347;51.828;6.466;2022-08-05T07:03:17;5.93;;;2.72;;
20375;SDS011;10347;51.828;6.466;2022-08-05T07:05:43;3.33;;;2.50;;
20375;SDS011;10347;51.828;6.466;2022-08-05T07:08:09;2.92;;;2.67;;
20375;SDS011;10347;51.828;6.466;2022-08-05T07:10:35;4.95;;;2.33;;
20375;SDS011;10347;51.828;6.466;2022-08-05T07:13:01;3.58;;;2.50;;
20375;SDS011;10347;51.828;6.466;2022-08-05T07:15:45;2.90;;;2.20;;
20375;SDS011;10347;51.828;6.466;2022-08-05T07:18:30;3.80;;;2.17;;
20375;SDS011;10347;51.828;6.466;2022-08-05T07:20:55;3.30;;;2.25;;
20375;SDS011;10347;51.828;6.466;2022-08-05T07:23:21;2.45;;;2.25;;
20375;SDS011;10347;51.828;6.466;2022-08-05T07:25:47;2.88;;;2.20;;
20375;SDS011;10347;51.828;6.466;2022-08-05T07:28:12;3.15;;;2.15;;
20375;SDS011;10347;51.828;6.466;2022-08-05T07:30:38;4.25;;;2.30;;
20375;SDS011;10347;51.828;6.466;2022-08-05T07:33:04;5.88;;;2.50;;
20375;SDS011;10347;51.828;6.466;2022-08-05T07:35:30;6.80;;;2.45;;
20375;SDS011;10347;51.828;6.466;2022-08-05T07:37:56;4.03;;;2.22;;
20375;SDS011;10347;51.828;6.466;2022-08-05T07:40:22;3.33;;;2.05;;
20375;SDS011;10347;51.828;6.466;2022-08-05T07:42:47;2.65;;;1.98;;
20375;SDS011;10347;51.828;6.466;2022-08-05T07:45:13;2.70;;;2.00;;
20375;SDS011;10347;51.828;6.466;2022-08-05T07:47:40;4.32;;;2.05;;
20375;SDS011;10347;51.828;6.466;2022-08-05T07:50:06;3.20;;;2.28;;
20375;SDS011;10347;51.828;6.466;2022-08-05T07:52:36;7.15;;;2.35;;
20375;SDS011;10347;51.828;6.466;2022-08-05T07:55:06;3.28;;;2.10;;
20375;SDS011;10347;51.828;6.466;2022-08-05T07:57:32;3.35;;;2.20;;
20375;SDS011;10347;51.828;6.466;2022-08-05T07:59:58;3.88;;;2.38;;
20375;SDS011;10347;51.828;6.466;2022-08-05T08:02:24;7.80;;;3.28;;
20375;SDS011;10347;51.828;6.466;2022-08-05T08:04:51;4.10;;;2.40;;
20375;SDS011;10347;51.828;6.466;2022-08-05T08:07:17;5.47;;;2.40;;
20375;SDS011;10347;51.828;6.466;2022-08-05T08:09:44;4.20;;;2.50;;
20375;SDS011;10347;51.828;6.466;2022-08-05T08:12:10;4.00;;;2.22;;
20375;SDS011;10347;51.828;6.466;2022-08-05T08:14:37;3.58;;;2.30;;
20375;SDS011;10347;51.828;6.466;2022-08-05T08:17:03;6.53;;;2.83;;
20375;SDS011;10347;51.828;6.466;2022-08-05T08:19:29;2.78;;;2.40;;
20375;SDS011;10347;51.828;6.466;2022-08-05T08:21:55;4.55;;;2.33;;
20375;SDS011;10347;51.828;6.466;2022-08-05T08:24:21;2.47;;;2.08;;
20375;SDS011;10347;51.828;6.466;2022-08-05T08:26:46;3.22;;;2.63;;
20375;SDS011;10347;51.828;6.466;2022-08-05T08:29:14;3.30;;;2.28;;
20375;SDS011;10347;51.828;6.466;2022-08-05T08:31:40;5.95;;;2.70;;
20375;SDS011;10347;51.828;6.466;2022-08-05T08:34:05;6.78;;;2.58;;
20375;SDS011;10347;51.828;6.466;2022-08-05T08:36:31;5.30;;;2.80;;
20375;SDS011;10347;51.828;6.466;2022-08-05T08:38:57;4.00;;;2.83;;
20375;SDS011;10347;51.828;6.466;2022-08-05T08:41:24;4.80;;;2.92;;
20375;SDS011;10347;51.828;6.466;2022-08-05T08:43:50;3.53;;;2.58;;
20375;SDS011;10347;51.828;6.466;2022-08-05T08:46:18;4.75;;;3.15;;
20375;SDS011;10347;51.828;6.466;2022-08-05T08:48:44;4.35;;;3.22;;
20375;SDS011;10347;51.828;6.466;2022-08-05T08:51:12;3.95;;;3.33;;
20375;SDS011;10347;51.828;6.466;2022-08-05T08:53:39;3.55;;;3.22;;
20375;SDS011;10347;51.828;6.466;2022-08-05T08:56:05;5.18;;;3.67;;
20375;SDS011;10347;51.828;6.466;2022-08-05T08:58:31;3.30;;;2.90;;
20375;SDS011;10347;51.828;6.466;2022-08-05T09:00:57;3.67;;;3.03;;
20375;SDS011;10347;51.828;6.466;2022-08-05T09:03:23;7.47;;;3.20;;
20375;SDS011;10347;51.828;6.466;2022-08-05T09:05:48;4.55;;;3.72;;
20375;SDS011;10347;51.828;6.466;2022-08-05T09:08:14;5.25;;;4.15;;
20375;SDS011;10347;51.828;6.466;2022-08-05T09:10:41;4.30;;;3.08;;
20375;SDS011;10347;51.828;6.466;2022-08-05T09:13:08;4.07;;;3.65;;
20375;SDS011;10347;51.828;6.466;2022-08-05T09:15:37;8.07;;;4.20;;
20375;SDS011;10347;51.828;6.466;2022-08-05T09:18:05;8.38;;;5.60;;
20375;SDS011;10347;51.828;6.466;2022-08-05T09:20:32;7.38;;;4.38;;
20375;SDS011;10347;51.828;6.466;2022-08-05T09:25:28;6.93;;;3.95;;
20375;SDS011;10347;51.828;6.466;2022-08-05T09:27:54;9.45;;;5.35;;
20375;SDS011;10347;51.828;6.466;2022-08-05T09:30:20;8.70;;;5.00;;
20375;SDS011;10347;51.828;6.466;2022-08-05T09:32:46;6.57;;;5.28;;
20375;SDS011;10347;51.828;6.466;2022-08-05T09:35:12;7.68;;;5.18;;
20375;SDS011;10347;51.828;6.466;2022-08-05T09:37:50;8.27;;;5.25;;
20375;SDS011;10347;51.828;6.466;2022-08-05T09:40:49;4.82;;;3.95;;
20375;SDS011;10347;51.828;6.466;2022-08-05T09:43:08;6.45;;;4.30;;
20375;SDS011;10347;51.828;6.466;2022-08-05T09:48:52;4.13;;;3.72;;
20375;SDS011;10347;51.828;6.466;2022-08-05T09:51:27;10.88;;;6.07;;
20375;SDS011;10347;51.828;6.466;2022-08-05T09:53:56;8.20;;;4.38;;
20375;SDS011;10347;51.828;6.466;2022-08-05T09:56:23;9.75;;;4.45;;
20375;SDS011;10347;51.828;6.466;2022-08-05T09:59:11;6.30;;;4.32;;
20375;SDS011;10347;51.828;6.466;2022-08-05T10:01:40;5.30;;;3.20;;
20375;SDS011;10347;51.828;6.466;2022-08-05T10:04:08;4.38;;;2.75;;
20375;SDS011;10347;51.828;6.466;2022-08-05T10:06:41;3.20;;;2.40;;
20375;SDS011;10347;51.828;6.466;2022-08-05T10:09:17;2.80;;;2.05;;
20375;SDS011;10347;51.828;6.466;2022-08-05T10:11:45;5.22;;;2.75;;
20375;SDS011;10347;51.828;6.466;2022-08-05T10:14:27;3.00;;;2.20;;
20375;SDS011;10347;51.828;6.466;2022-08-05T10:16:55;4.75;;;2.50;;
20375;SDS011;10347;51.828;6.466;2022-08-05T10:19:36;8.20;;;3.00;;
20375;SDS011;10347;51.828;6.466;2022-08-05T10:22:01;2.90;;;2.53;;
20375;SDS011;10347;51.828;6.466;2022-08-05T10:24:27;2.78;;;1.95;;
20375;SDS011;10347;51.828;6.466;2022-08-05T10:26:56;6.22;;;1.70;;
20375;SDS011;10347;51.828;6.466;2022-08-05T10:29:24;2.67;;;1.50;;
20375;SDS011;10347;51.828;6.466;2022-08-05T10:31:50;2.53;;;1.58;;
20375;SDS011;10347;51.828;6.466;2022-08-05T10:34:16;1.80;;;1.20;;
20375;SDS011;10347;51.828;6.466;2022-08-05T10:36:42;3.22;;;1.30;;
20375;SDS011;10347;51.828;6.466;2022-08-05T10:39:18;3.92;;;1.17;;
20375;SDS011;10347;51.828;6.466;2022-08-05T10:44:26;2.20;;;1.20;;
20375;SDS011;10347;51.828;6.466;2022-08-05T10:46:55;2.15;;;1.40;;
20375;SDS011;10347;51.828;6.466;2022-08-05T10:49:21;4.20;;;1.45;;
20375;SDS011;10347;51.828;6.466;2022-08-05T10:51:49;4.03;;;1.25;;
20375;SDS011;10347;51.828;6.466;2022-08-05T10:54:23;0.95;;;0.85;;
20375;SDS011;10347;51.828;6.466;2022-08-05T10:57:10;2.92;;;1.63;;
20375;SDS011;10347;51.828;6.466;2022-08-05T10:59:36;1.63;;;1.17;;
20375;SDS011;10347;51.828;6.466;2022-08-05T11:02:09;1.50;;;1.00;;
20375;SDS011;10347;51.828;6.466;2022-08-05T11:04:43;1.30;;;1.20;;
20375;SDS011;10347;51.828;6.466;2022-08-05T11:07:10;1.40;;;1.20;;
20375;SDS011;10347;51.828;6.466;2022-08-05T11:09:51;2.53;;;1.52;;
20375;SDS011;10347;51.828;6.466;2022-08-05T11:15:08;0.90;;;0.75;;
20375;SDS011;10347;51.828;6.466;2022-08-05T11:17:41;2.30;;;1.30;;
20375;SDS011;10347;51.828;6.466;2022-08-05T11:20:30;0.88;;;0.82;;
20375;SDS011;10347;51.828;6.466;2022-08-05T11:22:56;2.05;;;1.63;;
20375;SDS011;10347;51.828;6.466;2022-08-05T11:25:35;2.33;;;1.10;;
20375;SDS011;10347;51.828;6.466;2022-08-05T11:36:13;2.28;;;1.27;;
20375;SDS011;10347;51.828;6.466;2022-08-05T11:41:14;1.58;;;0.88;;
20375;SDS011;10347;51.828;6.466;2022-08-05T11:48:51;2.97;;;0.90;;
20375;SDS011;10347;51.828;6.466;2022-08-05T11:51:18;2.60;;;0.98;;
20375;SDS011;10347;51.828;6.466;2022-08-05T11:53:44;1.40;;;0.90;;
20375;SDS011;10347;51.828;6.466;2022-08-05T11:56:11;1.10;;;1.00;;
20375;SDS011;10347;51.828;6.466;2022-08-05T11:58:37;1.73;;;0.82;;
20375;SDS011;10347;51.828;6.466;2022-08-05T12:01:09;2.25;;;0.93;;
20375;SDS011;10347;51.828;6.466;2022-08-05T12:06:18;0.82;;;0.70;;
20375;SDS011;10347;51.828;6.466;2022-08-05T12:08:55;0.60;;;0.60;;
20375;SDS011;10347;51.828;6.466;2022-08-05T12:11:22;1.27;;;1.10;;
20375;SDS011;10347;51.828;6.466;2022-08-05T12:13:55;1.38;;;1.17;;
20375;SDS011;10347;51.828;6.466;2022-08-05T12:16:33;5.15;;;2.08;;
20375;SDS011;10347;51.828;6.466;2022-08-05T12:18:59;2.25;;;1.10;;
20375;SDS011;10347;51.828;6.466;2022-08-05T12:21:26;0.50;;;0.50;;
20375;SDS011;10347;51.828;6.466;2022-08-05T12:26:36;0.60;;;0.50;;
20375;SDS011;10347;51.828;6.466;2022-08-05T12:29:07;1.38;;;1.00;;
20375;SDS011;10347;51.828;6.466;2022-08-05T12:31:39;1.67;;;1.00;;
20375;SDS011;10347;51.828;6.466;2022-08-05T12:34:05;1.17;;;0.95;;
20375;SDS011;10347;51.828;6.466;2022-08-05T12:36:33;2.17;;;1.17;;
20375;SDS011;10347;51.828;6.466;2022-08-05T12:38:59;2.00;;;0.90;;
20375;SDS011;10347;51.828;6.466;2022-08-05T12:41:30;2.70;;;0.90;;
20375;SDS011;10347;51.828;6.466;2022-08-05T12:44:03;2.67;;;1.20;;
20375;SDS011;10347;51.828;6.466;2022-08-05T12:46:31;3.90;;;1.05;;
20375;SDS011;10347;51.828;6.466;2022-08-05T12:51:29;0.90;;;0.90;;
20375;SDS011;10347;51.828;6.466;2022-08-05T12:54:00;2.22;;;0.90;;
20375;SDS011;10347;51.828;6.466;2022-08-05T12:56:27;0.90;;;0.90;;
20375;SDS011;10347;51.828;6.466;2022-08-05T13:02:08;3.15;;;1.65;;
20375;SDS011;10347;51.828;6.466;2022-08-05T13:07:03;1.35;;;1.02;;
20375;SDS011;10347;51.828;6.466;2022-08-05T13:09:31;3.40;;;0.80;;
20375;SDS011;10347;51.828;6.466;2022-08-05T13:12:02;4.55;;;1.02;;
20375;SDS011;10347;51.828;6.466;2022-08-05T13:14:36;4.05;;;1.20;;
20375;SDS011;10347;51.828;6.466;2022-08-05T13:17:25;1.63;;;1.30;;
20375;SDS011;10347;51.828;6.466;2022-08-05T13:20:08;2.40;;;1.20;;
20375;SDS011;10347;51.828;6.466;2022-08-05T13:22:40;2.22;;;1.45;;
20375;SDS011;10347;51.828;6.466;2022-08-05T13:25:10;3.03;;;0.90;;
20375;SDS011;10347;51.828;6.466;2022-08-05T13:27:42;2.25;;;1.35;;
20375;SDS011;10347;51.828;6.466;2022-08-05T13:30:12;3.63;;;1.65;;
20375;SDS011;10347;51.828;6.466;2022-08-05T13:32:39;1.13;;;0.80;;
20375;SDS011;10347;51.828;6.466;2022-08-05T13:35:05;1.33;;;0.65;;
20375;SDS011;10347;51.828;6.466;2022-08-05T13:37:33;1.30;;;0.80;;
20375;SDS011;10347;51.828;6.466;2022-08-05T13:39:59;2.45;;;1.10;;
20375;SDS011;10347;51.828;6.466;2022-08-05T13:42:24;2.30;;;1.15;;
20375;SDS011;10347;51.828;6.466;2022-08-05T13:44:54;3.38;;;1.85;;
20375;SDS011;10347;51.828;6.466;2022-08-05T13:47:21;3.10;;;1.63;;
20375;SDS011;10347;51.828;6.466;2022-08-05T13:49:48;5.00;;;2.08;;
20375;SDS011;10347;51.828;6.466;2022-08-05T13:52:15;4.78;;;1.35;;
20375;SDS011;10347;51.828;6.466;2022-08-05T13:54:45;3.67;;;1.20;;
20375;SDS011;10347;51.828;6.466;2022-08-05T13:57:11;1.17;;;1.17;;
20375;SDS011;10347;51.828;6.466;2022-08-05T13:59:38;1.33;;;1.23;;
20375;SDS011;10347;51.828;6.466;2022-08-05T14:02:05;4.85;;;1.73;;
20375;SDS011;10347;51.828;6.466;2022-08-05T14:04:36;1.73;;;1.33;;
20375;SDS011;10347;51.828;6.466;2022-08-05T14:07:23;3.00;;;2.00;;
20375;SDS011;10347;51.828;6.466;2022-08-05T14:09:50;4.45;;;1.95;;
20375;SDS011;10347;51.828;6.466;2022-08-05T14:12:15;2.53;;;1.30;;
20375;SDS011;10347;51.828;6.466;2022-08-05T14:14:41;2.20;;;1.20;;
20375;SDS011;10347;51.828;6.466;2022-08-05T14:17:06;1.25;;;0.98;;
20375;SDS011;10347;51.828;6.466;2022-08-05T14:19:32;1.38;;;0.68;;
20375;SDS011;10347;51.828;6.466;2022-08-05T14:21:58;1.00;;;0.50;;
20375;SDS011;10347;51.828;6.466;2022-08-05T14:24:23;0.50;;;0.50;;
20375;SDS011;10347;51.828;6.466;2022-08-05T14:26:49;0.43;;;0.43;;
20375;SDS011;10347;51.828;6.466;2022-08-05T14:29:15;1.42;;;0.50;;
20375;SDS011;10347;51.828;6.466;2022-08-05T14:31:40;0.57;;;0.57;;
20375;SDS011;10347;51.828;6.466;2022-08-05T14:34:06;0.95;;;0.63;;
20375;SDS011;10347;51.828;6.466;2022-08-05T14:36:32;1.98;;;0.52;;
20375;SDS011;10347;51.828;6.466;2022-08-05T14:38:57;0.50;;;0.50;;
20375;SDS011;10347;51.828;6.466;2022-08-05T14:41:23;0.77;;;0.55;;
20375;SDS011;10347;51.828;6.466;2022-08-05T14:43:48;0.88;;;0.50;;
20375;SDS011;10347;51.828;6.466;2022-08-05T14:46:15;1.02;;;0.40;;
20375;SDS011;10347;51.828;6.466;2022-08-05T14:48:41;0.47;;;0.40;;
20375;SDS011;10347;51.828;6.466;2022-08-05T14:51:07;1.45;;;0.50;;
20375;SDS011;10347;51.828;6.466;2022-08-05T14:53:33;2.10;;;0.85;;
20375;SDS011;10347;51.828;6.466;2022-08-05T14:55:59;0.95;;;0.70;;
20375;SDS011;10347;51.828;6.466;2022-08-05T14:58:24;2.50;;;1.20;;
20375;SDS011;10347;51.828;6.466;2022-08-05T15:00:50;1.52;;;0.88;;
20375;SDS011;10347;51.828;6.466;2022-08-05T15:03:15;1.73;;;0.88;;
20375;SDS011;10347;51.828;6.466;2022-08-05T15:05:41;1.25;;;0.77;;
20375;SDS011;10347;51.828;6.466;2022-08-05T15:08:07;0.70;;;0.70;;
20375;SDS011;10347;51.828;6.466;2022-08-05T15:10:32;0.88;;;0.88;;
20375;SDS011;10347;51.828;6.466;2022-08-05T15:12:58;1.00;;;0.90;;
20375;SDS011;10347;51.828;6.466;2022-08-05T15:15:24;2.80;;;0.70;;
20375;SDS011;10347;51.828;6.466;2022-08-05T15:17:50;0.60;;;0.57;;
20375;SDS011;10347;51.828;6.466;2022-08-05T15:20:16;1.45;;;0.80;;
20375;SDS011;10347;51.828;6.466;2022-08-05T15:22:42;2.22;;;1.20;;
20375;SDS011;10347;51.828;6.466;2022-08-05T15:25:07;1.65;;;0.70;;
20375;SDS011;10347;51.828;6.466;2022-08-05T15:27:33;0.55;;;0.40;;
20375;SDS011;10347;51.828;6.466;2022-08-05T15:29:59;1.45;;;0.40;;
20375;SDS011;10347;51.828;6.466;2022-08-05T15:32:25;0.50;;;0.50;;
20375;SDS011;10347;51.828;6.466;2022-08-05T15:34:51;1.17;;;0.45;;
20375;SDS011;10347;51.828;6.466;2022-08-05T15:37:16;1.25;;;0.75;;
20375;SDS011;10347;51.828;6.466;2022-08-05T15:39:42;0.73;;;0.60;;
20375;SDS011;10347;51.828;6.466;2022-08-05T15:42:08;1.88;;;0.70;;
20375;SDS011;10347;51.828;6.466;2022-08-05T15:44:38;1.83;;;0.60;;
20375;SDS011;10347;51.828;6.466;2022-08-05T15:47:07;1.10;;;0.50;;